XNO56T KBWI-MPTO
Flight info
| Callsign | XNO56T |
|---|---|
| Flight time | 4h 4m |
| Altitude | 38000 |
| Route | CONLE5 SCOOB DCT EARZZ DCT SKARP Y313 HOAGG DCT ZFP Y319 URSUS/N0490F390 UL780 TASNO UM221 COLBY/N0485F400 DCT REPIT OSUPA2C |
| Aircraft | A35K/H-SDE2E3GHIJ3J4J5LM1ORWXY/LB1D1 |
Departure
| Time | 2026-04-29 05:10 |
|---|---|
| Airport | Baltimore/Washington International Thurgood Marshall Airport (KBWI) |
Arrival
| Time | 2026-04-29 09:15 |
|---|---|
| Airport | Tocumen International Airport (MPTO) |
| Time | Latitude | Longitude | Altitude | Speed | Heading |
|---|---|---|---|---|---|
| 2026-04-29 04:42 | 39.18303 | -76.66838 | 161 ft | 0 kts | 153° |
| 2026-04-29 04:59 | 39.18310 | -76.66842 | 161 ft | 4 kts | 158° |
| 2026-04-29 04:59 | 39.18335 | -76.66848 | 161 ft | 4 kts | 191° |
| 2026-04-29 05:00 | 39.18361 | -76.66838 | 161 ft | 4 kts | 189° |
| 2026-04-29 05:00 | 39.18379 | -76.66840 | 161 ft | 3 kts | 153° |
| 2026-04-29 05:00 | 39.18403 | -76.66856 | 163 ft | 4 kts | 150° |
| 2026-04-29 05:00 | 39.18427 | -76.66874 | 164 ft | 4 kts | 148° |
| 2026-04-29 05:01 | 39.18449 | -76.66893 | 166 ft | 5 kts | 144° |
| 2026-04-29 05:01 | 39.18455 | -76.66898 | 167 ft | 0 kts | 143° |
| 2026-04-29 05:03 | 39.18447 | -76.66891 | 166 ft | 5 kts | 144° |
| 2026-04-29 05:03 | 39.18412 | -76.66824 | 156 ft | 12 kts | 94° |
| 2026-04-29 05:04 | 39.18452 | -76.66719 | 162 ft | 14 kts | 53° |
| 2026-04-29 05:04 | 39.18498 | -76.66597 | 162 ft | 16 kts | 95° |
| 2026-04-29 05:04 | 39.18420 | -76.66500 | 162 ft | 18 kts | 145° |
| 2026-04-29 05:04 | 39.18331 | -76.66389 | 162 ft | 17 kts | 110° |
| 2026-04-29 05:05 | 39.18268 | -76.66253 | 161 ft | 19 kts | 141° |
| 2026-04-29 05:05 | 39.18155 | -76.66146 | 161 ft | 21 kts | 144° |
| 2026-04-29 05:05 | 39.18019 | -76.66055 | 160 ft | 23 kts | 176° |
| 2026-04-29 05:05 | 39.17873 | -76.66140 | 160 ft | 24 kts | 213° |
| 2026-04-29 05:06 | 39.17728 | -76.66260 | 161 ft | 25 kts | 213° |
| 2026-04-29 05:06 | 39.17574 | -76.66390 | 160 ft | 26 kts | 213° |
| 2026-04-29 05:06 | 39.17458 | -76.66501 | 160 ft | 19 kts | 234° |
| 2026-04-29 05:06 | 39.17453 | -76.66673 | 160 ft | 21 kts | 275° |
| 2026-04-29 05:07 | 39.17465 | -76.66867 | 160 ft | 23 kts | 275° |
| 2026-04-29 05:07 | 39.17515 | -76.67067 | 158 ft | 25 kts | 308° |
| 2026-04-29 05:07 | 39.17658 | -76.67213 | 156 ft | 28 kts | 324° |
| 2026-04-29 05:07 | 39.17821 | -76.67366 | 155 ft | 30 kts | 324° |
| 2026-04-29 05:08 | 39.17997 | -76.67528 | 153 ft | 32 kts | 323° |
| 2026-04-29 05:08 | 39.18184 | -76.67700 | 152 ft | 34 kts | 325° |
| 2026-04-29 05:08 | 39.18381 | -76.67879 | 153 ft | 35 kts | 325° |
| 2026-04-29 05:08 | 39.18510 | -76.67999 | 153 ft | 19 kts | 324° |
| 2026-04-29 05:09 | 39.18559 | -76.68107 | 153 ft | 11 kts | 261° |
| 2026-04-29 05:09 | 39.18529 | -76.68162 | 152 ft | 8 kts | 202° |
| 2026-04-29 05:09 | 39.18469 | -76.68136 | 150 ft | 11 kts | 148° |
| 2026-04-29 05:09 | 39.18401 | -76.68076 | 151 ft | 13 kts | 144° |
| 2026-04-29 05:10 | 39.18176 | -76.67866 | 152 ft | 78 kts | 144° |
| 2026-04-29 05:10 | 39.17539 | -76.67276 | 153 ft | 145 kts | 144° |
| 2026-04-29 05:10 | 39.16627 | -76.66423 | 650 ft | 164 kts | 144° |
| 2026-04-29 05:10 | 39.15712 | -76.65560 | 1479 ft | 165 kts | 147° |
| 2026-04-29 05:11 | 39.14698 | -76.64630 | 1879 ft | 194 kts | 148° |
| 2026-04-29 05:11 | 39.13511 | -76.63551 | 2218 ft | 221 kts | 148° |
| 2026-04-29 05:11 | 39.12206 | -76.62355 | 2758 ft | 240 kts | 148° |
| 2026-04-29 05:11 | 39.10826 | -76.60980 | 3297 ft | 260 kts | 140° |
| 2026-04-29 05:12 | 39.09525 | -76.59318 | 4105 ft | 266 kts | 135° |
| 2026-04-29 05:12 | 39.08222 | -76.57579 | 4888 ft | 274 kts | 136° |
| 2026-04-29 05:12 | 39.06663 | -76.56134 | 5652 ft | 279 kts | 155° |
| 2026-04-29 05:12 | 39.04789 | -76.55537 | 6426 ft | 278 kts | 182° |
| 2026-04-29 05:13 | 39.02858 | -76.55809 | 7171 ft | 282 kts | 192° |
| 2026-04-29 05:13 | 39.00916 | -76.56289 | 8066 ft | 286 kts | 193° |
| 2026-04-29 05:13 | 38.98949 | -76.56795 | 9010 ft | 290 kts | 193° |
| 2026-04-29 05:13 | 38.96950 | -76.57308 | 9921 ft | 296 kts | 193° |
| 2026-04-29 05:14 | 38.94897 | -76.57833 | 10641 ft | 307 kts | 193° |
| 2026-04-29 05:14 | 38.92774 | -76.58373 | 11413 ft | 314 kts | 194° |
| 2026-04-29 05:14 | 38.90622 | -76.58918 | 12305 ft | 317 kts | 194° |
| 2026-04-29 05:14 | 38.88444 | -76.59469 | 13217 ft | 321 kts | 194° |
| 2026-04-29 05:15 | 38.86272 | -76.60019 | 14078 ft | 324 kts | 194° |
| 2026-04-29 05:15 | 38.84044 | -76.60582 | 14788 ft | 332 kts | 195° |
| 2026-04-29 05:15 | 38.81689 | -76.61182 | 15146 ft | 350 kts | 194° |
| 2026-04-29 05:15 | 38.79262 | -76.61798 | 15451 ft | 369 kts | 194° |
| 2026-04-29 05:16 | 38.76699 | -76.62445 | 15978 ft | 380 kts | 194° |
| 2026-04-29 05:16 | 38.74091 | -76.63100 | 16734 ft | 384 kts | 194° |
| 2026-04-29 05:16 | 38.71460 | -76.63760 | 17529 ft | 387 kts | 194° |
| 2026-04-29 05:16 | 38.68806 | -76.64426 | 18318 ft | 390 kts | 194° |
| 2026-04-29 05:17 | 38.66124 | -76.65100 | 18995 ft | 394 kts | 195° |
| 2026-04-29 05:17 | 38.63416 | -76.65781 | 19620 ft | 400 kts | 195° |
| 2026-04-29 05:17 | 38.60666 | -76.66472 | 20247 ft | 405 kts | 195° |
| 2026-04-29 05:17 | 38.57882 | -76.67171 | 20885 ft | 411 kts | 195° |
| 2026-04-29 05:18 | 38.55051 | -76.67882 | 21487 ft | 418 kts | 195° |
| 2026-04-29 05:18 | 38.52182 | -76.68601 | 22024 ft | 422 kts | 196° |
| 2026-04-29 05:18 | 38.49282 | -76.69327 | 22657 ft | 427 kts | 196° |
| 2026-04-29 05:18 | 38.46347 | -76.70061 | 23331 ft | 432 kts | 196° |
| 2026-04-29 05:19 | 38.43376 | -76.70785 | 23944 ft | 438 kts | 195° |
| 2026-04-29 05:19 | 38.40303 | -76.71140 | 24477 ft | 450 kts | 185° |
| 2026-04-29 05:19 | 38.37148 | -76.70853 | 25029 ft | 459 kts | 179° |
| 2026-04-29 05:19 | 38.33965 | -76.70340 | 25534 ft | 464 kts | 178° |
| 2026-04-29 05:20 | 38.30746 | -76.69799 | 26071 ft | 469 kts | 178° |
| 2026-04-29 05:20 | 38.27496 | -76.69259 | 26623 ft | 473 kts | 179° |
| 2026-04-29 05:20 | 38.24213 | -76.68722 | 27145 ft | 478 kts | 179° |
| 2026-04-29 05:20 | 38.20901 | -76.68184 | 27666 ft | 482 kts | 179° |
| 2026-04-29 05:21 | 38.17554 | -76.67643 | 28174 ft | 487 kts | 180° |
| 2026-04-29 05:21 | 38.14183 | -76.67100 | 28695 ft | 491 kts | 180° |
| 2026-04-29 05:21 | 38.10826 | -76.66560 | 29153 ft | 496 kts | 181° |
| 2026-04-29 05:21 | 38.07387 | -76.66087 | 29612 ft | 497 kts | 185° |
| 2026-04-29 05:22 | 38.03932 | -76.65873 | 30099 ft | 498 kts | 187° |
| 2026-04-29 05:22 | 38.00453 | -76.65696 | 30532 ft | 502 kts | 187° |
| 2026-04-29 05:22 | 37.96956 | -76.65500 | 30997 ft | 504 kts | 187° |
| 2026-04-29 05:22 | 37.93444 | -76.65286 | 31476 ft | 506 kts | 187° |
| 2026-04-29 05:23 | 37.89920 | -76.65062 | 31931 ft | 508 kts | 187° |
| 2026-04-29 05:23 | 37.86379 | -76.64832 | 32335 ft | 510 kts | 187° |
| 2026-04-29 05:23 | 37.82829 | -76.64599 | 32746 ft | 512 kts | 187° |
| 2026-04-29 05:23 | 37.79266 | -76.64363 | 33147 ft | 513 kts | 187° |
| 2026-04-29 05:24 | 37.75695 | -76.64126 | 33579 ft | 514 kts | 187° |
| 2026-04-29 05:24 | 37.72129 | -76.63886 | 34175 ft | 510 kts | 187° |
| 2026-04-29 05:24 | 37.68593 | -76.63647 | 34667 ft | 508 kts | 188° |
| 2026-04-29 05:24 | 37.65059 | -76.63414 | 34969 ft | 510 kts | 188° |
| 2026-04-29 05:25 | 37.61559 | -76.63190 | 35229 ft | 511 kts | 188° |
| 2026-04-29 05:25 | 37.58035 | -76.63223 | 35541 ft | 501 kts | 195° |
| 2026-04-29 05:25 | 37.54567 | -76.63561 | 35869 ft | 498 kts | 197° |
| 2026-04-29 05:25 | 37.51124 | -76.64007 | 36180 ft | 497 kts | 198° |
| 2026-04-29 05:26 | 37.47692 | -76.64502 | 36483 ft | 497 kts | 199° |
| 2026-04-29 05:26 | 37.44252 | -76.65012 | 36784 ft | 498 kts | 199° |
| 2026-04-29 05:26 | 37.40807 | -76.65517 | 37030 ft | 499 kts | 198° |
| 2026-04-29 05:26 | 37.37348 | -76.66014 | 37303 ft | 500 kts | 198° |
| 2026-04-29 05:27 | 37.33885 | -76.66499 | 37589 ft | 501 kts | 198° |
| 2026-04-29 05:27 | 37.26949 | -76.67449 | 38089 ft | 503 kts | 198° |
| 2026-04-29 05:27 | 37.23460 | -76.67924 | 38100 ft | 504 kts | 198° |
| 2026-04-29 05:28 | 37.16486 | -76.68868 | 38118 ft | 505 kts | 198° |
| 2026-04-29 05:28 | 37.09488 | -76.69815 | 38120 ft | 506 kts | 198° |
| 2026-04-29 05:29 | 37.02480 | -76.70761 | 38120 ft | 506 kts | 198° |
| 2026-04-29 05:29 | 36.95474 | -76.71706 | 38093 ft | 506 kts | 198° |
| 2026-04-29 05:30 | 36.88467 | -76.72650 | 38122 ft | 506 kts | 197° |
| 2026-04-29 05:30 | 36.81464 | -76.73592 | 38120 ft | 506 kts | 197° |
| 2026-04-29 05:31 | 36.74506 | -76.74527 | 38118 ft | 506 kts | 197° |
| 2026-04-29 05:31 | 36.67507 | -76.75465 | 38118 ft | 505 kts | 197° |
| 2026-04-29 05:32 | 36.60527 | -76.76398 | 38119 ft | 504 kts | 197° |
| 2026-04-29 05:32 | 36.53540 | -76.77332 | 38116 ft | 504 kts | 197° |
| 2026-04-29 05:33 | 36.46559 | -76.78264 | 38109 ft | 504 kts | 197° |
| 2026-04-29 05:33 | 36.39582 | -76.79193 | 38116 ft | 504 kts | 197° |
| 2026-04-29 05:34 | 36.32603 | -76.80120 | 38113 ft | 504 kts | 197° |
| 2026-04-29 05:34 | 36.25626 | -76.81046 | 38093 ft | 504 kts | 197° |
| 2026-04-29 05:35 | 36.18641 | -76.81972 | 38119 ft | 505 kts | 196° |
| 2026-04-29 05:35 | 36.11644 | -76.82897 | 38120 ft | 506 kts | 196° |
| 2026-04-29 05:36 | 36.04688 | -76.83814 | 38121 ft | 506 kts | 196° |
| 2026-04-29 05:36 | 35.97638 | -76.84743 | 38120 ft | 507 kts | 196° |
| 2026-04-29 05:37 | 35.90749 | -76.85936 | 38119 ft | 495 kts | 204° |
| 2026-04-29 05:37 | 35.84189 | -76.88273 | 38110 ft | 487 kts | 208° |
| 2026-04-29 05:38 | 35.77769 | -76.90810 | 38088 ft | 483 kts | 208° |
| 2026-04-29 05:38 | 35.71373 | -76.93378 | 38109 ft | 483 kts | 208° |
| 2026-04-29 05:39 | 35.64969 | -76.95923 | 38105 ft | 484 kts | 208° |
| 2026-04-29 05:39 | 35.58556 | -76.98449 | 38118 ft | 484 kts | 208° |
| 2026-04-29 05:40 | 35.52136 | -77.00968 | 38090 ft | 484 kts | 207° |
| 2026-04-29 05:40 | 35.45745 | -77.03474 | 38109 ft | 486 kts | 207° |
| 2026-04-29 05:41 | 35.39293 | -77.05999 | 38111 ft | 487 kts | 207° |
| 2026-04-29 05:41 | 35.32835 | -77.08520 | 38117 ft | 487 kts | 207° |
| 2026-04-29 05:42 | 35.26378 | -77.11038 | 38114 ft | 487 kts | 207° |
| 2026-04-29 05:42 | 35.19920 | -77.13552 | 38122 ft | 487 kts | 207° |
| 2026-04-29 05:43 | 35.13466 | -77.16061 | 38111 ft | 487 kts | 207° |
| 2026-04-29 05:43 | 35.07009 | -77.18567 | 38081 ft | 487 kts | 207° |
| 2026-04-29 05:44 | 35.00546 | -77.21072 | 38114 ft | 488 kts | 207° |
| 2026-04-29 05:44 | 34.94067 | -77.23579 | 38120 ft | 488 kts | 207° |
| 2026-04-29 05:45 | 34.88703 | -77.25647 | 38116 ft | 485 kts | 207° |
| 2026-04-29 05:45 | 34.81225 | -77.28529 | 38095 ft | 484 kts | 206° |
| 2026-04-29 05:46 | 34.75859 | -77.30594 | 38117 ft | 482 kts | 206° |
| 2026-04-29 05:46 | 34.69459 | -77.33055 | 38105 ft | 482 kts | 206° |
| 2026-04-29 05:47 | 34.63064 | -77.35511 | 38105 ft | 482 kts | 206° |
| 2026-04-29 05:47 | 34.56666 | -77.37963 | 38106 ft | 482 kts | 206° |
| 2026-04-29 05:48 | 34.50268 | -77.40392 | 38105 ft | 483 kts | 204° |
| 2026-04-29 05:48 | 34.43653 | -77.42041 | 38113 ft | 491 kts | 198° |
| 2026-04-29 05:49 | 34.36904 | -77.43388 | 38113 ft | 492 kts | 197° |
| 2026-04-29 05:49 | 34.30131 | -77.44683 | 38112 ft | 493 kts | 197° |
| 2026-04-29 05:50 | 34.23332 | -77.45994 | 38121 ft | 495 kts | 197° |
| 2026-04-29 05:50 | 34.16536 | -77.47314 | 38119 ft | 495 kts | 197° |
| 2026-04-29 05:51 | 34.09727 | -77.48638 | 38121 ft | 495 kts | 197° |
| 2026-04-29 05:51 | 34.02916 | -77.49964 | 38125 ft | 497 kts | 197° |
| 2026-04-29 05:52 | 33.96072 | -77.51293 | 38129 ft | 498 kts | 197° |
| 2026-04-29 05:52 | 33.89223 | -77.52618 | 38121 ft | 499 kts | 197° |
| 2026-04-29 05:53 | 33.82370 | -77.53942 | 38117 ft | 498 kts | 197° |
| 2026-04-29 05:53 | 33.75516 | -77.55265 | 38132 ft | 499 kts | 197° |
| 2026-04-29 05:54 | 33.68662 | -77.56586 | 38137 ft | 499 kts | 196° |
| 2026-04-29 05:54 | 33.61810 | -77.57904 | 38138 ft | 499 kts | 196° |
| 2026-04-29 05:55 | 33.55095 | -77.59687 | 38135 ft | 492 kts | 202° |
| 2026-04-29 05:55 | 33.48540 | -77.61921 | 38146 ft | 493 kts | 203° |
| 2026-04-29 05:56 | 33.41952 | -77.64243 | 38145 ft | 493 kts | 203° |
| 2026-04-29 05:56 | 33.35365 | -77.66562 | 38144 ft | 493 kts | 203° |
| 2026-04-29 05:57 | 33.28780 | -77.68864 | 38143 ft | 493 kts | 203° |
| 2026-04-29 05:57 | 33.22191 | -77.71158 | 38142 ft | 493 kts | 203° |
| 2026-04-29 05:58 | 33.15605 | -77.73447 | 38152 ft | 493 kts | 203° |
| 2026-04-29 05:58 | 33.09026 | -77.75730 | 38147 ft | 493 kts | 203° |
| 2026-04-29 05:59 | 33.02439 | -77.78013 | 38151 ft | 493 kts | 202° |
| 2026-04-29 05:59 | 32.95852 | -77.80292 | 38140 ft | 493 kts | 202° |
| 2026-04-29 06:00 | 32.89264 | -77.82569 | 38152 ft | 493 kts | 202° |
| 2026-04-29 06:00 | 32.82722 | -77.84825 | 38152 ft | 493 kts | 202° |
| 2026-04-29 06:01 | 32.76130 | -77.87096 | 38153 ft | 493 kts | 202° |
| 2026-04-29 06:01 | 32.69544 | -77.89361 | 38135 ft | 493 kts | 202° |
| 2026-04-29 06:02 | 32.62949 | -77.91605 | 38145 ft | 494 kts | 202° |
| 2026-04-29 06:02 | 32.56315 | -77.93745 | 38139 ft | 494 kts | 201° |
| 2026-04-29 06:03 | 32.49659 | -77.95874 | 38138 ft | 496 kts | 201° |
| 2026-04-29 06:03 | 32.42980 | -77.98024 | 38150 ft | 498 kts | 201° |
| 2026-04-29 06:04 | 32.36280 | -78.00188 | 38148 ft | 499 kts | 201° |
| 2026-04-29 06:04 | 32.29577 | -78.02351 | 38143 ft | 500 kts | 201° |
| 2026-04-29 06:05 | 32.22854 | -78.04517 | 38151 ft | 500 kts | 201° |
| 2026-04-29 06:05 | 32.16179 | -78.06664 | 38151 ft | 501 kts | 201° |
| 2026-04-29 06:06 | 32.09454 | -78.08823 | 38149 ft | 501 kts | 201° |
| 2026-04-29 06:06 | 32.02726 | -78.10981 | 38146 ft | 501 kts | 200° |
| 2026-04-29 06:07 | 31.95991 | -78.13138 | 38148 ft | 502 kts | 200° |
| 2026-04-29 06:07 | 31.89245 | -78.15295 | 38148 ft | 502 kts | 200° |
| 2026-04-29 06:08 | 31.82500 | -78.17448 | 38145 ft | 502 kts | 200° |
| 2026-04-29 06:08 | 31.75754 | -78.19598 | 38148 ft | 503 kts | 200° |
| 2026-04-29 06:09 | 31.68990 | -78.21752 | 38151 ft | 504 kts | 200° |
| 2026-04-29 06:09 | 31.62215 | -78.23905 | 38151 ft | 504 kts | 200° |
| 2026-04-29 06:10 | 31.55492 | -78.26038 | 38151 ft | 504 kts | 200° |
| 2026-04-29 06:10 | 31.48722 | -78.28183 | 38151 ft | 505 kts | 199° |
| 2026-04-29 06:11 | 31.41955 | -78.30372 | 38154 ft | 505 kts | 200° |
| 2026-04-29 06:11 | 31.35201 | -78.32652 | 38154 ft | 504 kts | 200° |
| 2026-04-29 06:12 | 31.28460 | -78.34930 | 38154 ft | 505 kts | 200° |
| 2026-04-29 06:12 | 31.21701 | -78.37196 | 38154 ft | 505 kts | 200° |
| 2026-04-29 06:13 | 31.14942 | -78.39450 | 38154 ft | 505 kts | 200° |
| 2026-04-29 06:13 | 31.08168 | -78.41704 | 38157 ft | 506 kts | 200° |
| 2026-04-29 06:14 | 31.01443 | -78.43939 | 38157 ft | 506 kts | 200° |
| 2026-04-29 06:14 | 30.94670 | -78.46188 | 38159 ft | 507 kts | 200° |
| 2026-04-29 06:15 | 30.87879 | -78.48440 | 38165 ft | 508 kts | 199° |
| 2026-04-29 06:15 | 30.81087 | -78.50688 | 38165 ft | 508 kts | 199° |
| 2026-04-29 06:16 | 30.74287 | -78.52936 | 38168 ft | 508 kts | 199° |
| 2026-04-29 06:16 | 30.67479 | -78.55183 | 38168 ft | 510 kts | 199° |
| 2026-04-29 06:17 | 30.60647 | -78.57435 | 38172 ft | 511 kts | 199° |
| 2026-04-29 06:17 | 30.53799 | -78.59688 | 38161 ft | 511 kts | 199° |
| 2026-04-29 06:18 | 30.46960 | -78.61935 | 38159 ft | 511 kts | 199° |
| 2026-04-29 06:18 | 30.40108 | -78.64183 | 38164 ft | 512 kts | 199° |
| 2026-04-29 06:19 | 30.33248 | -78.66431 | 38162 ft | 513 kts | 199° |
| 2026-04-29 06:19 | 30.26380 | -78.68678 | 38166 ft | 513 kts | 199° |
| 2026-04-29 06:20 | 30.19501 | -78.70926 | 38168 ft | 514 kts | 199° |
| 2026-04-29 06:20 | 30.12664 | -78.73163 | 38165 ft | 514 kts | 199° |
| 2026-04-29 06:21 | 30.05779 | -78.75401 | 38157 ft | 514 kts | 199° |
| 2026-04-29 06:21 | 29.98889 | -78.77639 | 38163 ft | 514 kts | 199° |
| 2026-04-29 06:22 | 29.91996 | -78.79877 | 38146 ft | 514 kts | 199° |
| 2026-04-29 06:22 | 29.85104 | -78.82112 | 38157 ft | 515 kts | 198° |
| 2026-04-29 06:23 | 29.78081 | -78.83918 | 38150 ft | 519 kts | 187° |
| 2026-04-29 06:23 | 29.70845 | -78.84004 | 38153 ft | 521 kts | 180° |
| 2026-04-29 06:24 | 29.63589 | -78.83670 | 38140 ft | 522 kts | 179° |
| 2026-04-29 06:24 | 29.56332 | -78.83281 | 38137 ft | 522 kts | 178° |
| 2026-04-29 06:25 | 29.49074 | -78.82920 | 38137 ft | 522 kts | 179° |
| 2026-04-29 06:25 | 29.41812 | -78.82582 | 38128 ft | 522 kts | 179° |
| 2026-04-29 06:26 | 29.34599 | -78.82253 | 38120 ft | 522 kts | 178° |
| 2026-04-29 06:26 | 29.27337 | -78.81921 | 38122 ft | 522 kts | 178° |
| 2026-04-29 06:27 | 29.20086 | -78.81590 | 38120 ft | 521 kts | 178° |
| 2026-04-29 06:27 | 29.12835 | -78.81258 | 38120 ft | 521 kts | 178° |
| 2026-04-29 06:28 | 29.05584 | -78.80928 | 38115 ft | 521 kts | 178° |
| 2026-04-29 06:28 | 28.98340 | -78.80597 | 38121 ft | 520 kts | 178° |
| 2026-04-29 06:29 | 28.91106 | -78.80268 | 38122 ft | 520 kts | 178° |
| 2026-04-29 06:29 | 28.83876 | -78.79939 | 38122 ft | 520 kts | 178° |
| 2026-04-29 06:30 | 28.73036 | -78.79447 | 38122 ft | 519 kts | 177° |
| 2026-04-29 06:31 | 28.65879 | -78.79123 | 38122 ft | 517 kts | 177° |
| 2026-04-29 06:31 | 28.58684 | -78.78798 | 38121 ft | 517 kts | 177° |
| 2026-04-29 06:32 | 28.51487 | -78.78472 | 38121 ft | 517 kts | 177° |
| 2026-04-29 06:32 | 28.44304 | -78.78148 | 38120 ft | 516 kts | 177° |
| 2026-04-29 06:33 | 28.37143 | -78.77826 | 38122 ft | 514 kts | 177° |
| 2026-04-29 06:33 | 28.29989 | -78.77504 | 38121 ft | 514 kts | 177° |
| 2026-04-29 06:34 | 28.22834 | -78.77182 | 38123 ft | 514 kts | 177° |
| 2026-04-29 06:34 | 28.15690 | -78.76862 | 38119 ft | 512 kts | 178° |
| 2026-04-29 06:35 | 28.09793 | -78.76598 | 38122 ft | 509 kts | 178° |
| 2026-04-29 06:35 | 28.02708 | -78.76281 | 38119 ft | 509 kts | 178° |
| 2026-04-29 06:36 | 27.95637 | -78.75965 | 38116 ft | 509 kts | 178° |
| 2026-04-29 06:36 | 27.88561 | -78.75648 | 38114 ft | 508 kts | 179° |
| 2026-04-29 06:37 | 27.81510 | -78.75334 | 38116 ft | 505 kts | 179° |
| 2026-04-29 06:37 | 27.74538 | -78.75024 | 38116 ft | 504 kts | 179° |
| 2026-04-29 06:38 | 27.67525 | -78.74713 | 38118 ft | 504 kts | 179° |
| 2026-04-29 06:38 | 27.60510 | -78.74401 | 38109 ft | 504 kts | 179° |
| 2026-04-29 06:39 | 27.53510 | -78.74090 | 38114 ft | 502 kts | 180° |
| 2026-04-29 06:39 | 27.46544 | -78.73782 | 38116 ft | 501 kts | 180° |
| 2026-04-29 06:40 | 27.39584 | -78.73475 | 38118 ft | 501 kts | 180° |
| 2026-04-29 06:40 | 27.32622 | -78.73167 | 38113 ft | 501 kts | 180° |
| 2026-04-29 06:41 | 27.25655 | -78.72860 | 38111 ft | 501 kts | 180° |
| 2026-04-29 06:41 | 27.18686 | -78.72553 | 38113 ft | 501 kts | 180° |
| 2026-04-29 06:42 | 27.11724 | -78.72246 | 38113 ft | 501 kts | 180° |
| 2026-04-29 06:42 | 27.04761 | -78.71940 | 38113 ft | 501 kts | 180° |
| 2026-04-29 06:43 | 26.97792 | -78.71634 | 38115 ft | 500 kts | 180° |
| 2026-04-29 06:43 | 26.90847 | -78.71329 | 38116 ft | 498 kts | 180° |
| 2026-04-29 06:44 | 26.83920 | -78.71026 | 38111 ft | 498 kts | 180° |
| 2026-04-29 06:44 | 26.77033 | -78.70725 | 38113 ft | 498 kts | 180° |
| 2026-04-29 06:45 | 26.70103 | -78.70422 | 38101 ft | 498 kts | 181° |
| 2026-04-29 06:45 | 26.63169 | -78.70120 | 38101 ft | 498 kts | 181° |
| 2026-04-29 06:46 | 26.56244 | -78.69909 | 38101 ft | 496 kts | 185° |
| 2026-04-29 06:46 | 26.49397 | -78.70661 | 38099 ft | 494 kts | 190° |
| 2026-04-29 06:47 | 26.42593 | -78.71661 | 38103 ft | 493 kts | 191° |
| 2026-04-29 06:47 | 26.35792 | -78.72699 | 38106 ft | 493 kts | 191° |
| 2026-04-29 06:48 | 26.28996 | -78.73722 | 38109 ft | 493 kts | 191° |
| 2026-04-29 06:48 | 26.22192 | -78.74732 | 38112 ft | 493 kts | 191° |
| 2026-04-29 06:49 | 26.15397 | -78.75736 | 38113 ft | 493 kts | 191° |
| 2026-04-29 06:49 | 26.08597 | -78.76738 | 38111 ft | 493 kts | 191° |
| 2026-04-29 06:50 | 26.01795 | -78.77741 | 38113 ft | 493 kts | 191° |
| 2026-04-29 06:50 | 25.94994 | -78.78743 | 38113 ft | 493 kts | 191° |
| 2026-04-29 06:51 | 25.88191 | -78.79743 | 38113 ft | 493 kts | 191° |
| 2026-04-29 06:51 | 25.81394 | -78.80742 | 38100 ft | 493 kts | 191° |
| 2026-04-29 06:52 | 25.74631 | -78.81735 | 38116 ft | 493 kts | 191° |
| 2026-04-29 06:52 | 25.67826 | -78.82732 | 38111 ft | 493 kts | 191° |
| 2026-04-29 06:53 | 25.61018 | -78.83729 | 38111 ft | 493 kts | 191° |
| 2026-04-29 06:53 | 25.54213 | -78.84724 | 38110 ft | 493 kts | 191° |
| 2026-04-29 06:54 | 25.47411 | -78.85718 | 38110 ft | 494 kts | 191° |
| 2026-04-29 06:54 | 25.40579 | -78.86715 | 38106 ft | 495 kts | 191° |
| 2026-04-29 06:55 | 25.33758 | -78.87708 | 38106 ft | 495 kts | 191° |
| 2026-04-29 06:55 | 25.26926 | -78.88703 | 38106 ft | 495 kts | 191° |
| 2026-04-29 06:56 | 25.20098 | -78.89696 | 38097 ft | 495 kts | 191° |
| 2026-04-29 06:56 | 25.13252 | -78.90690 | 38106 ft | 496 kts | 191° |
| 2026-04-29 06:57 | 25.06400 | -78.91685 | 38107 ft | 497 kts | 191° |
| 2026-04-29 06:57 | 24.99544 | -78.92678 | 38107 ft | 497 kts | 191° |
| 2026-04-29 06:58 | 24.92731 | -78.93664 | 38104 ft | 497 kts | 191° |
| 2026-04-29 06:58 | 24.85860 | -78.94657 | 38106 ft | 497 kts | 192° |
| 2026-04-29 06:59 | 24.78993 | -78.95649 | 38102 ft | 498 kts | 192° |
| 2026-04-29 06:59 | 24.72125 | -78.96640 | 38103 ft | 498 kts | 191° |
| 2026-04-29 07:00 | 24.65256 | -78.97630 | 38103 ft | 498 kts | 192° |
| 2026-04-29 07:00 | 24.58381 | -78.98619 | 38091 ft | 498 kts | 192° |
| 2026-04-29 07:01 | 24.51553 | -78.99601 | 38096 ft | 498 kts | 192° |
| 2026-04-29 07:01 | 24.44679 | -79.00589 | 38103 ft | 498 kts | 192° |
| 2026-04-29 07:02 | 24.37803 | -79.01575 | 38104 ft | 498 kts | 192° |
| 2026-04-29 07:02 | 24.30923 | -79.02561 | 38103 ft | 498 kts | 192° |
| 2026-04-29 07:03 | 24.24047 | -79.03546 | 38101 ft | 498 kts | 192° |
| 2026-04-29 07:03 | 24.17177 | -79.04528 | 38100 ft | 498 kts | 192° |
| 2026-04-29 07:04 | 24.10304 | -79.05510 | 38099 ft | 498 kts | 192° |
| 2026-04-29 07:04 | 24.03429 | -79.06492 | 38104 ft | 498 kts | 192° |
| 2026-04-29 07:05 | 23.96479 | -79.07054 | 38093 ft | 502 kts | 186° |
| 2026-04-29 07:05 | 23.89486 | -79.07252 | 38097 ft | 503 kts | 186° |
| 2026-04-29 07:06 | 23.82482 | -79.07392 | 38101 ft | 503 kts | 185° |
| 2026-04-29 07:06 | 23.75488 | -79.07533 | 38095 ft | 503 kts | 186° |
| 2026-04-29 07:07 | 23.68533 | -79.07684 | 38089 ft | 503 kts | 186° |
| 2026-04-29 07:07 | 23.61531 | -79.07841 | 38120 ft | 504 kts | 186° |
| 2026-04-29 07:07 | 23.58023 | -79.07920 | 38350 ft | 504 kts | 186° |
| 2026-04-29 07:08 | 23.54522 | -79.07998 | 38679 ft | 504 kts | 186° |
| 2026-04-29 07:08 | 23.51013 | -79.08076 | 38930 ft | 503 kts | 186° |
| 2026-04-29 07:08 | 23.47513 | -79.08154 | 39067 ft | 504 kts | 186° |
| 2026-04-29 07:09 | 23.40511 | -79.08308 | 39090 ft | 502 kts | 186° |
| 2026-04-29 07:09 | 23.33517 | -79.08463 | 39078 ft | 503 kts | 186° |
| 2026-04-29 07:10 | 23.26514 | -79.08619 | 39088 ft | 503 kts | 186° |
| 2026-04-29 07:10 | 23.19524 | -79.08774 | 39089 ft | 503 kts | 186° |
| 2026-04-29 07:11 | 23.12531 | -79.08929 | 39087 ft | 503 kts | 186° |
| 2026-04-29 07:11 | 23.05540 | -79.09084 | 39085 ft | 503 kts | 186° |
| 2026-04-29 07:12 | 22.98586 | -79.09238 | 39068 ft | 502 kts | 186° |
| 2026-04-29 07:12 | 22.91602 | -79.09392 | 39085 ft | 502 kts | 186° |
| 2026-04-29 07:13 | 22.84616 | -79.09546 | 39079 ft | 502 kts | 186° |
| 2026-04-29 07:13 | 22.77631 | -79.09701 | 39073 ft | 502 kts | 186° |
| 2026-04-29 07:14 | 22.70641 | -79.09855 | 39074 ft | 502 kts | 186° |
| 2026-04-29 07:14 | 22.63651 | -79.10010 | 39075 ft | 502 kts | 186° |
| 2026-04-29 07:15 | 22.56660 | -79.10165 | 39075 ft | 503 kts | 186° |
| 2026-04-29 07:15 | 22.49664 | -79.10314 | 39075 ft | 503 kts | 186° |
| 2026-04-29 07:16 | 22.42671 | -79.10464 | 39076 ft | 503 kts | 186° |
| 2026-04-29 07:16 | 22.35681 | -79.10616 | 39074 ft | 502 kts | 186° |
| 2026-04-29 07:17 | 22.28707 | -79.10766 | 39074 ft | 501 kts | 186° |
| 2026-04-29 07:17 | 22.21742 | -79.10917 | 39069 ft | 501 kts | 186° |
| 2026-04-29 07:18 | 22.14770 | -79.11027 | 39067 ft | 503 kts | 182° |
| 2026-04-29 07:18 | 22.07782 | -79.10016 | 39057 ft | 509 kts | 174° |
| 2026-04-29 07:19 | 22.00855 | -79.08520 | 39071 ft | 506 kts | 172° |
| 2026-04-29 07:19 | 21.94012 | -79.06965 | 39064 ft | 505 kts | 172° |
| 2026-04-29 07:20 | 21.87132 | -79.05417 | 39065 ft | 505 kts | 173° |
| 2026-04-29 07:20 | 21.80264 | -79.03891 | 39060 ft | 502 kts | 173° |
| 2026-04-29 07:21 | 21.73427 | -79.02381 | 39052 ft | 501 kts | 173° |
| 2026-04-29 07:21 | 21.66615 | -79.00878 | 39056 ft | 499 kts | 173° |
| 2026-04-29 07:22 | 21.59820 | -78.99380 | 39056 ft | 498 kts | 173° |
| 2026-04-29 07:22 | 21.54127 | -78.98126 | 39053 ft | 498 kts | 173° |
| 2026-04-29 07:23 | 21.47375 | -78.96640 | 39053 ft | 498 kts | 173° |
| 2026-04-29 07:23 | 21.40583 | -78.95146 | 39041 ft | 498 kts | 173° |
| 2026-04-29 07:24 | 21.33808 | -78.93656 | 39048 ft | 496 kts | 173° |
| 2026-04-29 07:24 | 21.27041 | -78.92170 | 39048 ft | 496 kts | 173° |
| 2026-04-29 07:25 | 21.20278 | -78.90687 | 39048 ft | 496 kts | 173° |
| 2026-04-29 07:25 | 21.13517 | -78.89208 | 39048 ft | 496 kts | 173° |
| 2026-04-29 07:26 | 21.06752 | -78.87726 | 39048 ft | 496 kts | 173° |
| 2026-04-29 07:26 | 20.99989 | -78.86246 | 39045 ft | 496 kts | 173° |
| 2026-04-29 07:27 | 20.93223 | -78.84768 | 39045 ft | 496 kts | 173° |
| 2026-04-29 07:27 | 20.86456 | -78.83291 | 39042 ft | 496 kts | 173° |
| 2026-04-29 07:28 | 20.79688 | -78.81815 | 39042 ft | 496 kts | 173° |
| 2026-04-29 07:28 | 20.72931 | -78.80342 | 39038 ft | 496 kts | 173° |
| 2026-04-29 07:29 | 20.66172 | -78.78871 | 39040 ft | 495 kts | 173° |
| 2026-04-29 07:29 | 20.59415 | -78.77401 | 39039 ft | 495 kts | 173° |
| 2026-04-29 07:30 | 20.52659 | -78.75934 | 39042 ft | 495 kts | 173° |
| 2026-04-29 07:30 | 20.45902 | -78.74467 | 39037 ft | 495 kts | 173° |
| 2026-04-29 07:31 | 20.35761 | -78.72268 | 39034 ft | 495 kts | 173° |
| 2026-04-29 07:31 | 20.29004 | -78.70804 | 39034 ft | 495 kts | 173° |
| 2026-04-29 07:32 | 20.22285 | -78.69350 | 39031 ft | 495 kts | 173° |
| 2026-04-29 07:32 | 20.15532 | -78.67890 | 39036 ft | 496 kts | 173° |
| 2026-04-29 07:33 | 20.08773 | -78.66430 | 39024 ft | 495 kts | 173° |
| 2026-04-29 07:33 | 20.02014 | -78.64996 | 39027 ft | 493 kts | 175° |
| 2026-04-29 07:34 | 19.95226 | -78.64453 | 39032 ft | 488 kts | 182° |
| 2026-04-29 07:34 | 19.88434 | -78.64262 | 39033 ft | 488 kts | 183° |
| 2026-04-29 07:35 | 19.81649 | -78.64131 | 39029 ft | 488 kts | 183° |
| 2026-04-29 07:35 | 19.74855 | -78.63991 | 39023 ft | 488 kts | 183° |
| 2026-04-29 07:36 | 19.68079 | -78.63838 | 39028 ft | 486 kts | 183° |
| 2026-04-29 07:36 | 19.61313 | -78.63680 | 39030 ft | 486 kts | 183° |
| 2026-04-29 07:37 | 19.54546 | -78.63523 | 39026 ft | 486 kts | 183° |
| 2026-04-29 07:37 | 19.47787 | -78.63367 | 39025 ft | 486 kts | 183° |
| 2026-04-29 07:38 | 19.41026 | -78.63211 | 39023 ft | 486 kts | 183° |
| 2026-04-29 07:38 | 19.34278 | -78.63054 | 39026 ft | 484 kts | 183° |
| 2026-04-29 07:39 | 19.27550 | -78.62899 | 39025 ft | 484 kts | 183° |
| 2026-04-29 07:39 | 19.20817 | -78.62745 | 39026 ft | 484 kts | 183° |
| 2026-04-29 07:40 | 19.14088 | -78.62590 | 39026 ft | 484 kts | 183° |
| 2026-04-29 07:40 | 19.07403 | -78.62436 | 39022 ft | 484 kts | 183° |
| 2026-04-29 07:41 | 19.00674 | -78.62281 | 39021 ft | 483 kts | 183° |
| 2026-04-29 07:41 | 18.93952 | -78.62128 | 39021 ft | 483 kts | 183° |
| 2026-04-29 07:42 | 18.87239 | -78.61979 | 39020 ft | 483 kts | 183° |
| 2026-04-29 07:42 | 18.80517 | -78.61824 | 39020 ft | 483 kts | 183° |
| 2026-04-29 07:43 | 18.73803 | -78.61669 | 39022 ft | 483 kts | 183° |
| 2026-04-29 07:43 | 18.67093 | -78.61515 | 39021 ft | 482 kts | 183° |
| 2026-04-29 07:44 | 18.60393 | -78.61363 | 39019 ft | 481 kts | 183° |
| 2026-04-29 07:44 | 18.53695 | -78.61211 | 39017 ft | 481 kts | 183° |
| 2026-04-29 07:45 | 18.46996 | -78.61060 | 39018 ft | 481 kts | 183° |
| 2026-04-29 07:45 | 18.40294 | -78.60908 | 39008 ft | 481 kts | 183° |
| 2026-04-29 07:46 | 18.33611 | -78.60756 | 39019 ft | 480 kts | 183° |
| 2026-04-29 07:46 | 18.26983 | -78.60606 | 39013 ft | 480 kts | 183° |
| 2026-04-29 07:47 | 18.20309 | -78.60456 | 39015 ft | 480 kts | 183° |
| 2026-04-29 07:47 | 18.13633 | -78.60305 | 39012 ft | 480 kts | 183° |
| 2026-04-29 07:48 | 18.06956 | -78.60154 | 39003 ft | 479 kts | 183° |
| 2026-04-29 07:48 | 18.00302 | -78.60003 | 39008 ft | 477 kts | 183° |
| 2026-04-29 07:49 | 17.93670 | -78.59854 | 39008 ft | 477 kts | 183° |
| 2026-04-29 07:49 | 17.87044 | -78.59705 | 39012 ft | 476 kts | 183° |
| 2026-04-29 07:50 | 17.80414 | -78.59556 | 39010 ft | 476 kts | 183° |
| 2026-04-29 07:50 | 17.73786 | -78.59408 | 39008 ft | 476 kts | 183° |
| 2026-04-29 07:51 | 17.67156 | -78.59264 | 39010 ft | 477 kts | 183° |
| 2026-04-29 07:51 | 17.60519 | -78.59112 | 39013 ft | 477 kts | 183° |
| 2026-04-29 07:52 | 17.53884 | -78.58959 | 39013 ft | 477 kts | 183° |
| 2026-04-29 07:52 | 17.47258 | -78.58808 | 39014 ft | 476 kts | 183° |
| 2026-04-29 07:53 | 17.40625 | -78.58658 | 39003 ft | 476 kts | 183° |
| 2026-04-29 07:53 | 17.34020 | -78.58508 | 39009 ft | 473 kts | 183° |
| 2026-04-29 07:54 | 17.27484 | -78.58361 | 39006 ft | 472 kts | 183° |
| 2026-04-29 07:54 | 17.20872 | -78.58213 | 39007 ft | 472 kts | 183° |
| 2026-04-29 07:55 | 17.14345 | -78.58067 | 39006 ft | 472 kts | 183° |
| 2026-04-29 07:55 | 17.07771 | -78.57920 | 39007 ft | 472 kts | 183° |
| 2026-04-29 07:56 | 17.01202 | -78.57771 | 39006 ft | 471 kts | 184° |
| 2026-04-29 07:56 | 16.94662 | -78.57624 | 39005 ft | 470 kts | 184° |
| 2026-04-29 07:57 | 16.88122 | -78.57478 | 39004 ft | 470 kts | 184° |
| 2026-04-29 07:57 | 16.81584 | -78.57332 | 39001 ft | 470 kts | 184° |
| 2026-04-29 07:58 | 16.75044 | -78.57186 | 39001 ft | 470 kts | 184° |
| 2026-04-29 07:58 | 16.68548 | -78.57041 | 39000 ft | 470 kts | 184° |
| 2026-04-29 07:59 | 16.62014 | -78.56894 | 39004 ft | 470 kts | 184° |
| 2026-04-29 07:59 | 16.55477 | -78.56748 | 38997 ft | 470 kts | 184° |
| 2026-04-29 08:00 | 16.48939 | -78.56602 | 39001 ft | 470 kts | 184° |
| 2026-04-29 08:00 | 16.42401 | -78.56457 | 38996 ft | 470 kts | 184° |
| 2026-04-29 08:01 | 16.35865 | -78.56311 | 38991 ft | 470 kts | 184° |
| 2026-04-29 08:01 | 16.29311 | -78.56166 | 38995 ft | 471 kts | 184° |
| 2026-04-29 08:02 | 16.22745 | -78.56019 | 38992 ft | 471 kts | 184° |
| 2026-04-29 08:02 | 16.16180 | -78.55873 | 38985 ft | 471 kts | 184° |
| 2026-04-29 08:03 | 16.09620 | -78.55727 | 38987 ft | 471 kts | 184° |
| 2026-04-29 08:03 | 16.03099 | -78.55582 | 38983 ft | 471 kts | 184° |
| 2026-04-29 08:04 | 15.96536 | -78.55437 | 38987 ft | 472 kts | 184° |
| 2026-04-29 08:04 | 15.89964 | -78.55291 | 38979 ft | 472 kts | 184° |
| 2026-04-29 08:05 | 15.83390 | -78.55145 | 38985 ft | 472 kts | 184° |
| 2026-04-29 08:05 | 15.76815 | -78.54999 | 38986 ft | 472 kts | 184° |
| 2026-04-29 08:06 | 15.70241 | -78.54854 | 38975 ft | 472 kts | 184° |
| 2026-04-29 08:06 | 15.63669 | -78.54708 | 38970 ft | 473 kts | 184° |
| 2026-04-29 08:07 | 15.57084 | -78.54563 | 38974 ft | 473 kts | 184° |
| 2026-04-29 08:07 | 15.50499 | -78.54417 | 38976 ft | 473 kts | 184° |
| 2026-04-29 08:08 | 15.43916 | -78.54272 | 38976 ft | 473 kts | 184° |
| 2026-04-29 08:08 | 15.37331 | -78.54126 | 38962 ft | 473 kts | 184° |
| 2026-04-29 08:09 | 15.31861 | -78.54006 | 38968 ft | 473 kts | 184° |
| 2026-04-29 08:09 | 15.25275 | -78.53861 | 38967 ft | 473 kts | 184° |
| 2026-04-29 08:10 | 15.18688 | -78.53716 | 38963 ft | 473 kts | 184° |
| 2026-04-29 08:10 | 15.12102 | -78.53571 | 38964 ft | 473 kts | 184° |
| 2026-04-29 08:11 | 15.05517 | -78.53426 | 38960 ft | 473 kts | 184° |
| 2026-04-29 08:11 | 14.98967 | -78.53579 | 38950 ft | 466 kts | 193° |
| 2026-04-29 08:12 | 14.92575 | -78.54582 | 38960 ft | 464 kts | 194° |
| 2026-04-29 08:12 | 14.86213 | -78.55657 | 38960 ft | 463 kts | 194° |
| 2026-04-29 08:13 | 14.79900 | -78.56730 | 38958 ft | 463 kts | 194° |
| 2026-04-29 08:13 | 14.73538 | -78.57812 | 38955 ft | 463 kts | 194° |
| 2026-04-29 08:14 | 14.67176 | -78.58894 | 38952 ft | 463 kts | 194° |
| 2026-04-29 08:14 | 14.60819 | -78.59975 | 38948 ft | 463 kts | 194° |
| 2026-04-29 08:15 | 14.54452 | -78.61057 | 38948 ft | 463 kts | 194° |
| 2026-04-29 08:15 | 14.48087 | -78.62137 | 38949 ft | 463 kts | 194° |
| 2026-04-29 08:16 | 14.41726 | -78.63217 | 38949 ft | 463 kts | 194° |
| 2026-04-29 08:16 | 14.35359 | -78.64297 | 38948 ft | 463 kts | 194° |
| 2026-04-29 08:17 | 14.28990 | -78.65377 | 38944 ft | 463 kts | 194° |
| 2026-04-29 08:17 | 14.22626 | -78.66455 | 38944 ft | 463 kts | 194° |
| 2026-04-29 08:18 | 14.16263 | -78.67532 | 38945 ft | 463 kts | 194° |
| 2026-04-29 08:18 | 14.09900 | -78.68609 | 38948 ft | 464 kts | 194° |
| 2026-04-29 08:19 | 14.03533 | -78.69686 | 38940 ft | 463 kts | 194° |
| 2026-04-29 08:19 | 13.97208 | -78.70755 | 38942 ft | 463 kts | 194° |
| 2026-04-29 08:20 | 13.90843 | -78.71831 | 38936 ft | 464 kts | 194° |
| 2026-04-29 08:20 | 13.84471 | -78.72906 | 38939 ft | 464 kts | 194° |
| 2026-04-29 08:21 | 13.78103 | -78.73981 | 38934 ft | 464 kts | 194° |
| 2026-04-29 08:21 | 13.71735 | -78.75055 | 38933 ft | 464 kts | 194° |
| 2026-04-29 08:22 | 13.65366 | -78.76129 | 38932 ft | 464 kts | 194° |
| 2026-04-29 08:22 | 13.58999 | -78.77202 | 38927 ft | 464 kts | 193° |
| 2026-04-29 08:23 | 13.52633 | -78.78273 | 38929 ft | 463 kts | 193° |
| 2026-04-29 08:23 | 13.46277 | -78.79343 | 38927 ft | 463 kts | 193° |
| 2026-04-29 08:24 | 13.39920 | -78.80412 | 38927 ft | 463 kts | 193° |
| 2026-04-29 08:24 | 13.33567 | -78.81480 | 38925 ft | 463 kts | 193° |
| 2026-04-29 08:25 | 13.27249 | -78.82542 | 38924 ft | 463 kts | 193° |
| 2026-04-29 08:25 | 13.20891 | -78.83610 | 38923 ft | 462 kts | 193° |
| 2026-04-29 08:26 | 13.14552 | -78.84674 | 38923 ft | 462 kts | 193° |
| 2026-04-29 08:26 | 13.08217 | -78.85737 | 38916 ft | 461 kts | 193° |
| 2026-04-29 08:27 | 13.01877 | -78.86800 | 38917 ft | 461 kts | 193° |
| 2026-04-29 08:27 | 12.95541 | -78.87861 | 38920 ft | 461 kts | 193° |
| 2026-04-29 08:28 | 12.89194 | -78.88925 | 38911 ft | 461 kts | 193° |
| 2026-04-29 08:28 | 12.82864 | -78.89984 | 38917 ft | 461 kts | 193° |
| 2026-04-29 08:29 | 12.76530 | -78.91044 | 38911 ft | 461 kts | 193° |
| 2026-04-29 08:29 | 12.70245 | -78.92095 | 38911 ft | 461 kts | 193° |
| 2026-04-29 08:30 | 12.60746 | -78.93683 | 38908 ft | 460 kts | 193° |
| 2026-04-29 08:31 | 12.54417 | -78.94740 | 38906 ft | 460 kts | 193° |
| 2026-04-29 08:31 | 12.48097 | -78.95795 | 38905 ft | 459 kts | 193° |
| 2026-04-29 08:32 | 12.41796 | -78.96846 | 38904 ft | 459 kts | 193° |
| 2026-04-29 08:32 | 12.35499 | -78.97897 | 38903 ft | 458 kts | 193° |
| 2026-04-29 08:33 | 12.29204 | -78.98946 | 38898 ft | 458 kts | 193° |
| 2026-04-29 08:33 | 12.22902 | -78.99996 | 38897 ft | 459 kts | 193° |
| 2026-04-29 08:34 | 12.16605 | -79.01045 | 38895 ft | 458 kts | 193° |
| 2026-04-29 08:34 | 12.10316 | -79.02092 | 38897 ft | 457 kts | 193° |
| 2026-04-29 08:35 | 12.04036 | -79.03137 | 38894 ft | 457 kts | 193° |
| 2026-04-29 08:35 | 11.97755 | -79.04181 | 38894 ft | 457 kts | 193° |
| 2026-04-29 08:36 | 11.91513 | -79.05219 | 38889 ft | 457 kts | 193° |
| 2026-04-29 08:36 | 11.85232 | -79.06263 | 38890 ft | 457 kts | 193° |
| 2026-04-29 08:37 | 11.78947 | -79.07306 | 38888 ft | 457 kts | 193° |
| 2026-04-29 08:37 | 11.72673 | -79.08348 | 38891 ft | 457 kts | 193° |
| 2026-04-29 08:38 | 11.66405 | -79.09388 | 38885 ft | 456 kts | 193° |
| 2026-04-29 08:38 | 11.60135 | -79.10428 | 38883 ft | 456 kts | 193° |
| 2026-04-29 08:39 | 11.53865 | -79.11467 | 38879 ft | 456 kts | 193° |
| 2026-04-29 08:39 | 11.47596 | -79.12506 | 38882 ft | 456 kts | 193° |
| 2026-04-29 08:40 | 11.41334 | -79.13542 | 38881 ft | 455 kts | 193° |
| 2026-04-29 08:40 | 11.35082 | -79.14577 | 38881 ft | 455 kts | 193° |
| 2026-04-29 08:41 | 11.28836 | -79.15611 | 38881 ft | 455 kts | 193° |
| 2026-04-29 08:41 | 11.22595 | -79.16643 | 38878 ft | 455 kts | 193° |
| 2026-04-29 08:42 | 11.16351 | -79.17676 | 38879 ft | 454 kts | 193° |
| 2026-04-29 08:42 | 11.10147 | -79.18701 | 38853 ft | 454 kts | 193° |
| 2026-04-29 08:43 | 11.03903 | -79.19732 | 38857 ft | 454 kts | 193° |
| 2026-04-29 08:43 | 10.97678 | -79.20759 | 38243 ft | 450 kts | 193° |
| 2026-04-29 08:43 | 10.94589 | -79.21269 | 37549 ft | 449 kts | 193° |
| 2026-04-29 08:44 | 10.91505 | -79.21778 | 36824 ft | 450 kts | 193° |
| 2026-04-29 08:44 | 10.88414 | -79.22289 | 36079 ft | 450 kts | 193° |
| 2026-04-29 08:44 | 10.85317 | -79.22800 | 35333 ft | 451 kts | 193° |
| 2026-04-29 08:44 | 10.82214 | -79.23312 | 34604 ft | 452 kts | 192° |
| 2026-04-29 08:45 | 10.79105 | -79.23825 | 33918 ft | 453 kts | 192° |
| 2026-04-29 08:45 | 10.75997 | -79.24337 | 33240 ft | 451 kts | 192° |
| 2026-04-29 08:45 | 10.72910 | -79.24845 | 32595 ft | 449 kts | 192° |
| 2026-04-29 08:45 | 10.69832 | -79.25352 | 31963 ft | 447 kts | 192° |
| 2026-04-29 08:46 | 10.66776 | -79.25856 | 31384 ft | 444 kts | 192° |
| 2026-04-29 08:46 | 10.63730 | -79.26357 | 30814 ft | 442 kts | 191° |
| 2026-04-29 08:46 | 10.60707 | -79.26855 | 30273 ft | 439 kts | 191° |
| 2026-04-29 08:46 | 10.57698 | -79.27351 | 29691 ft | 436 kts | 191° |
| 2026-04-29 08:47 | 10.54706 | -79.27843 | 29072 ft | 434 kts | 191° |
| 2026-04-29 08:47 | 10.51738 | -79.28331 | 28468 ft | 431 kts | 191° |
| 2026-04-29 08:47 | 10.48788 | -79.28817 | 27903 ft | 428 kts | 191° |
| 2026-04-29 08:47 | 10.45860 | -79.29299 | 27331 ft | 425 kts | 191° |
| 2026-04-29 08:48 | 10.42954 | -79.29793 | 26768 ft | 422 kts | 192° |
| 2026-04-29 08:48 | 10.40139 | -79.30572 | 26221 ft | 418 kts | 199° |
| 2026-04-29 08:48 | 10.37407 | -79.31546 | 25656 ft | 416 kts | 200° |
| 2026-04-29 08:48 | 10.34708 | -79.32539 | 25295 ft | 408 kts | 200° |
| 2026-04-29 08:49 | 10.32071 | -79.33510 | 25087 ft | 397 kts | 200° |
| 2026-04-29 08:49 | 10.29540 | -79.34440 | 24901 ft | 387 kts | 200° |
| 2026-04-29 08:49 | 10.27048 | -79.35353 | 24721 ft | 376 kts | 200° |
| 2026-04-29 08:49 | 10.24623 | -79.36241 | 24545 ft | 365 kts | 200° |
| 2026-04-29 08:50 | 10.22268 | -79.37103 | 24354 ft | 356 kts | 200° |
| 2026-04-29 08:50 | 10.19950 | -79.37951 | 24026 ft | 351 kts | 200° |
| 2026-04-29 08:50 | 10.17659 | -79.38789 | 23627 ft | 349 kts | 200° |
| 2026-04-29 08:50 | 10.15380 | -79.39623 | 23181 ft | 348 kts | 200° |
| 2026-04-29 08:51 | 10.13102 | -79.40455 | 22697 ft | 347 kts | 200° |
| 2026-04-29 08:51 | 10.10840 | -79.41282 | 22250 ft | 345 kts | 200° |
| 2026-04-29 08:51 | 10.08587 | -79.42105 | 21850 ft | 344 kts | 200° |
| 2026-04-29 08:51 | 10.06337 | -79.42927 | 21461 ft | 343 kts | 200° |
| 2026-04-29 08:52 | 10.04090 | -79.43748 | 21071 ft | 341 kts | 200° |
| 2026-04-29 08:52 | 10.01863 | -79.44561 | 20699 ft | 340 kts | 200° |
| 2026-04-29 08:52 | 9.99639 | -79.45373 | 20313 ft | 339 kts | 200° |
| 2026-04-29 08:52 | 9.97420 | -79.46183 | 19940 ft | 338 kts | 200° |
| 2026-04-29 08:53 | 9.95215 | -79.46988 | 19564 ft | 336 kts | 200° |
| 2026-04-29 08:53 | 9.93024 | -79.47788 | 19216 ft | 334 kts | 200° |
| 2026-04-29 08:53 | 9.90837 | -79.48586 | 18852 ft | 334 kts | 199° |
| 2026-04-29 08:53 | 9.88639 | -79.49346 | 18493 ft | 334 kts | 195° |
| 2026-04-29 08:54 | 9.86352 | -79.49668 | 18149 ft | 332 kts | 178° |
| 2026-04-29 08:54 | 9.84090 | -79.49254 | 17746 ft | 331 kts | 160° |
| 2026-04-29 08:54 | 9.81962 | -79.48371 | 17340 ft | 331 kts | 156° |
| 2026-04-29 08:54 | 9.79869 | -79.47407 | 16937 ft | 330 kts | 155° |
| 2026-04-29 08:55 | 9.77776 | -79.46440 | 16538 ft | 329 kts | 155° |
| 2026-04-29 08:55 | 9.75699 | -79.45489 | 16175 ft | 326 kts | 155° |
| 2026-04-29 08:55 | 9.73635 | -79.44549 | 15888 ft | 324 kts | 156° |
| 2026-04-29 08:55 | 9.71579 | -79.43615 | 15602 ft | 323 kts | 156° |
| 2026-04-29 08:56 | 9.69532 | -79.42687 | 15318 ft | 322 kts | 155° |
| 2026-04-29 08:56 | 9.68180 | -79.42075 | 15136 ft | 321 kts | 156° |
| 2026-04-29 08:56 | 9.66133 | -79.41148 | 14860 ft | 322 kts | 156° |
| 2026-04-29 08:56 | 9.64092 | -79.40225 | 14587 ft | 321 kts | 156° |
| 2026-04-29 08:57 | 9.62056 | -79.39304 | 14306 ft | 319 kts | 156° |
| 2026-04-29 08:57 | 9.60030 | -79.38388 | 14049 ft | 318 kts | 156° |
| 2026-04-29 08:57 | 9.58022 | -79.37461 | 13783 ft | 317 kts | 153° |
| 2026-04-29 08:57 | 9.55572 | -79.35876 | 13387 ft | 315 kts | 144° |
| 2026-04-29 08:58 | 9.54380 | -79.34990 | 13185 ft | 314 kts | 143° |
| 2026-04-29 08:58 | 9.52629 | -79.33673 | 12881 ft | 313 kts | 143° |
| 2026-04-29 08:58 | 9.50880 | -79.32360 | 12583 ft | 312 kts | 143° |
| 2026-04-29 08:58 | 9.49138 | -79.31055 | 12277 ft | 310 kts | 143° |
| 2026-04-29 08:59 | 9.47429 | -79.29777 | 12009 ft | 309 kts | 143° |
| 2026-04-29 08:59 | 9.45700 | -79.28487 | 11720 ft | 308 kts | 142° |
| 2026-04-29 08:59 | 9.43979 | -79.27203 | 11422 ft | 307 kts | 142° |
| 2026-04-29 08:59 | 9.42265 | -79.25925 | 11148 ft | 305 kts | 142° |
| 2026-04-29 09:00 | 9.40557 | -79.24651 | 10858 ft | 304 kts | 142° |
| 2026-04-29 09:00 | 9.38856 | -79.23383 | 10575 ft | 303 kts | 142° |
| 2026-04-29 09:00 | 9.37158 | -79.22117 | 10289 ft | 302 kts | 142° |
| 2026-04-29 09:00 | 9.35469 | -79.20858 | 10028 ft | 301 kts | 142° |
| 2026-04-29 09:01 | 9.33782 | -79.19601 | 9760 ft | 300 kts | 142° |
| 2026-04-29 09:01 | 9.32104 | -79.18352 | 9422 ft | 299 kts | 142° |
| 2026-04-29 09:01 | 9.30431 | -79.17106 | 8998 ft | 297 kts | 142° |
| 2026-04-29 09:01 | 9.28785 | -79.15895 | 8773 ft | 287 kts | 144° |
| 2026-04-29 09:02 | 9.27035 | -79.15012 | 8612 ft | 278 kts | 162° |
| 2026-04-29 09:02 | 9.25152 | -79.14825 | 8418 ft | 269 kts | 185° |
| 2026-04-29 09:02 | 9.23382 | -79.15357 | 8128 ft | 265 kts | 207° |
| 2026-04-29 09:02 | 9.21812 | -79.16320 | 7793 ft | 263 kts | 214° |
| 2026-04-29 09:03 | 9.20293 | -79.17360 | 7438 ft | 263 kts | 214° |
| 2026-04-29 09:03 | 9.18781 | -79.18395 | 7092 ft | 262 kts | 214° |
| 2026-04-29 09:03 | 9.17272 | -79.19420 | 6753 ft | 261 kts | 214° |
| 2026-04-29 09:03 | 9.15763 | -79.20438 | 6456 ft | 259 kts | 214° |
| 2026-04-29 09:04 | 9.14263 | -79.21447 | 6290 ft | 259 kts | 214° |
| 2026-04-29 09:04 | 9.12758 | -79.22456 | 6147 ft | 259 kts | 214° |
| 2026-04-29 09:04 | 9.11256 | -79.23463 | 6002 ft | 259 kts | 214° |
| 2026-04-29 09:04 | 9.09774 | -79.24455 | 5854 ft | 259 kts | 214° |
| 2026-04-29 09:05 | 9.08274 | -79.25459 | 5711 ft | 258 kts | 214° |
| 2026-04-29 09:05 | 9.06775 | -79.26462 | 5555 ft | 258 kts | 214° |
| 2026-04-29 09:05 | 9.05277 | -79.27464 | 5425 ft | 258 kts | 214° |
| 2026-04-29 09:05 | 9.03782 | -79.28464 | 5271 ft | 258 kts | 214° |
| 2026-04-29 09:06 | 9.02288 | -79.29463 | 5131 ft | 257 kts | 214° |
| 2026-04-29 09:06 | 9.00762 | -79.30409 | 4990 ft | 257 kts | 209° |
| 2026-04-29 09:06 | 8.99183 | -79.31258 | 4847 ft | 257 kts | 208° |
| 2026-04-29 09:06 | 8.97598 | -79.32101 | 4707 ft | 257 kts | 208° |
| 2026-04-29 09:07 | 8.96018 | -79.32953 | 4548 ft | 257 kts | 208° |
| 2026-04-29 09:07 | 8.94443 | -79.33812 | 4417 ft | 257 kts | 208° |
| 2026-04-29 09:07 | 8.92874 | -79.34672 | 4261 ft | 256 kts | 209° |
| 2026-04-29 09:07 | 8.91315 | -79.35529 | 4111 ft | 254 kts | 209° |
| 2026-04-29 09:08 | 8.89793 | -79.36368 | 4021 ft | 242 kts | 209° |
| 2026-04-29 09:08 | 8.88349 | -79.37164 | 3990 ft | 233 kts | 209° |
| 2026-04-29 09:08 | 8.86946 | -79.37975 | 3988 ft | 232 kts | 216° |
| 2026-04-29 09:08 | 8.85812 | -79.39093 | 3749 ft | 226 kts | 239° |
| 2026-04-29 09:09 | 8.85361 | -79.40572 | 3336 ft | 220 kts | 278° |
| 2026-04-29 09:09 | 8.85880 | -79.41949 | 3125 ft | 207 kts | 309° |
| 2026-04-29 09:09 | 8.86722 | -79.43130 | 2997 ft | 207 kts | 311° |
| 2026-04-29 09:09 | 8.87574 | -79.44280 | 2931 ft | 201 kts | 311° |
| 2026-04-29 09:10 | 8.88403 | -79.45415 | 2874 ft | 199 kts | 311° |
| 2026-04-29 09:10 | 8.89191 | -79.46517 | 2772 ft | 186 kts | 314° |
| 2026-04-29 09:10 | 8.90233 | -79.47147 | 2710 ft | 175 kts | 356° |
| 2026-04-29 09:10 | 8.91417 | -79.46971 | 2630 ft | 177 kts | 23° |
| 2026-04-29 09:11 | 8.92457 | -79.46322 | 2572 ft | 173 kts | 32° |
| 2026-04-29 09:11 | 8.93466 | -79.45693 | 2516 ft | 167 kts | 28° |
| 2026-04-29 09:11 | 8.94458 | -79.45150 | 2327 ft | 159 kts | 27° |
| 2026-04-29 09:11 | 8.95415 | -79.44602 | 2111 ft | 158 kts | 28° |
| 2026-04-29 09:12 | 8.96368 | -79.44054 | 1906 ft | 158 kts | 28° |
| 2026-04-29 09:12 | 8.97331 | -79.43506 | 1681 ft | 158 kts | 27° |
| 2026-04-29 09:12 | 8.98292 | -79.42957 | 1482 ft | 160 kts | 27° |
| 2026-04-29 09:12 | 8.99266 | -79.42401 | 1264 ft | 160 kts | 28° |
| 2026-04-29 09:13 | 9.00195 | -79.41868 | 1061 ft | 147 kts | 28° |
| 2026-04-29 09:13 | 9.01053 | -79.41377 | 885 ft | 137 kts | 28° |
| 2026-04-29 09:13 | 9.01876 | -79.40907 | 719 ft | 136 kts | 28° |
| 2026-04-29 09:13 | 9.02703 | -79.40435 | 535 ft | 137 kts | 28° |
| 2026-04-29 09:14 | 9.03538 | -79.39958 | 361 ft | 138 kts | 28° |
| 2026-04-29 09:14 | 9.04376 | -79.39479 | 167 ft | 138 kts | 28° |
| 2026-04-29 09:14 | 9.05216 | -79.39001 | 41 ft | 137 kts | 28° |
| 2026-04-29 09:14 | 9.05885 | -79.38622 | 46 ft | 71 kts | 30° |
| 2026-04-29 09:15 | 9.06229 | -79.38426 | 44 ft | 32 kts | 29° |
| 2026-04-29 09:15 | 9.06404 | -79.38388 | 47 ft | 26 kts | 1° |
| 2026-04-29 09:15 | 9.06559 | -79.38389 | 46 ft | 20 kts | 356° |
| 2026-04-29 09:15 | 9.06635 | -79.38451 | 44 ft | 14 kts | 262° |
| 2026-04-29 09:16 | 9.06581 | -79.38509 | 44 ft | 7 kts | 211° |
| 2026-04-29 09:16 | 9.06567 | -79.38518 | 47 ft | 0 kts | 211° |
| 2026-04-29 09:16 | 9.06563 | -79.38520 | 47 ft | 3 kts | 211° |
| 2026-04-29 09:17 | 9.06547 | -79.38541 | 46 ft | 5 kts | 245° |
| 2026-04-29 09:17 | 9.06530 | -79.38589 | 45 ft | 9 kts | 262° |
| 2026-04-29 09:17 | 9.06528 | -79.38630 | 47 ft | 0 kts | 267° |
| 2026-04-29 09:19 | 9.06730 | -79.38572 | 52 ft | 0 kts | 301° |